Time;durP1;ratioP1;P1;durP2;ratioP2;P2;SDS_P1;SDS_P2;PMS_P1;PMS_P2;Temp;Humidity;BMP_temperature;BMP_pressure;BME280_temperature;BME280_humidity;BME280_pressure;Samples;Min_cycle;Max_cycle;Signal;HPM_P1;HPM_P2
2021/07/11 00:02:00;;;;;;;;;6.50;6.50;;;;;17.90;75.88;101420.03;5054433;28;45662;-74
2021/07/11 00:04:25;;;;;;;;;12.50;11.00;;;;;17.93;74.93;101421.53;5056227;28;45678;-74
2021/07/11 00:06:50;;;;;;;;;14.25;12.00;;;;;17.93;74.96;101421.53;5055728;28;46702;-73
2021/07/11 00:09:16;;;;;;;;;17.00;14.25;;;;;17.95;75.94;101423.03;5057098;28;45942;-72
2021/07/11 00:11:41;;;;;;;;;16.00;14.00;;;;;17.96;75.33;101419.31;5049126;28;45513;-72
2021/07/11 00:14:07;;;;;;;;;18.50;15.75;;;;;17.99;76.14;101418.13;5056610;28;45787;-74
2021/07/11 00:16:33;;;;;;;;;18.50;15.50;;;;;18.00;75.42;101419.78;5058827;28;46217;-73
2021/07/11 00:18:59;;;;;;;;;15.25;14.25;;;;;18.01;75.83;101416.94;5059689;28;45355;-73
2021/07/11 00:21:26;;;;;;;;;13.50;11.75;;;;;18.04;75.77;101410.38;5052477;28;45604;-69
2021/07/11 00:23:51;;;;;;;;;13.50;11.00;;;;;18.05;74.73;101404.00;5048152;28;45645;-73
2021/07/11 00:26:17;;;;;;;;;11.25;9.00;;;;;18.06;75.16;101419.06;5063540;28;46111;-74
2021/07/11 00:28:43;;;;;;;;;10.00;8.50;;;;;18.07;75.35;101409.19;5033454;28;45545;-69
2021/07/11 00:31:08;;;;;;;;;9.25;9.00;;;;;18.07;75.34;101410.00;5055101;28;45560;-72
2021/07/11 00:33:33;;;;;;;;;6.50;5.25;;;;;18.09;75.45;101402.66;5052293;28;45479;-74
2021/07/11 00:35:59;;;;;;;;;5.00;4.00;;;;;18.08;75.04;101401.00;5047464;28;46056;-74
2021/07/11 00:38:24;;;;;;;;;5.50;4.00;;;;;18.08;75.15;101401.00;5052432;28;45540;-74
2021/07/11 00:40:50;;;;;;;;;6.00;4.25;;;;;18.08;75.15;101405.53;5053466;28;45422;-69
2021/07/11 00:43:15;;;;;;;;;5.50;3.00;;;;;18.08;75.33;101400.19;5054440;28;45421;-74
2021/07/11 00:45:41;;;;;;;;;4.50;3.50;;;;;18.08;74.84;101392.16;5055338;28;45517;-69
2021/07/11 00:48:08;;;;;;;;;4.50;3.50;;;;;18.07;74.66;101398.50;5052404;28;45795;-74
2021/07/11 00:50:33;;;;;;;;;4.00;3.00;;;;;18.06;74.96;101405.69;5058408;28;45489;-74
2021/07/11 00:52:58;;;;;;;;;4.75;3.00;;;;;18.03;75.35;101396.19;5048312;28;45681;-74
2021/07/11 00:55:24;;;;;;;;;2.75;2.75;;;;;18.03;75.61;101392.69;5051806;28;45738;-72
2021/07/11 00:57:50;;;;;;;;;4.75;3.50;;;;;17.99;75.50;101389.53;5051294;28;45514;-68
2021/07/11 01:00:16;;;;;;;;;2.75;2.25;;;;;17.98;75.06;101379.03;5053534;28;45933;-73
2021/07/11 01:02:56;;;;;;;;;2.50;1.50;;;;;17.94;75.71;101375.06;5035983;28;45466;-73
2021/07/11 01:05:23;;;;;;;;;3.00;2.00;;;;;17.90;75.99;101384.44;5061945;28;46259;-72
2021/07/11 01:08:30;;;;;;;;;3.00;3.00;;;;;17.84;75.14;101378.81;5053295;28;45792;-68
2021/07/11 01:11:02;;;;;;;;;3.00;2.00;;;;;17.78;75.19;101378.69;4966031;28;45597;-72
2021/07/11 01:13:28;;;;;;;;;2.75;2.75;;;;;17.72;75.87;101372.22;4964618;28;45572;-69
2021/07/11 01:15:56;;;;;;;;;2.50;2.00;;;;;17.67;75.77;101374.59;4955125;28;47624;-71
2021/07/11 01:18:23;;;;;;;;;2.00;2.00;;;;;17.63;76.83;101375.97;4948993;28;45645;-73
2021/07/11 01:20:55;;;;;;;;;2.50;2.00;;;;;17.58;76.17;101371.19;4959079;28;45656;-73
2021/07/11 01:23:58;;;;;;;;;3.75;2.00;;;;;17.55;75.80;101368.00;4960220;28;45623;-73
2021/07/11 01:26:25;;;;;;;;;2.00;2.00;;;;;17.50;75.75;101371.22;4952486;28;46661;-70
2021/07/11 01:28:52;;;;;;;;;1.00;1.00;;;;;17.47;76.41;101368.09;4959698;28;45595;-69
2021/07/11 01:31:19;;;;;;;;;2.75;2.00;;;;;17.42;76.59;101361.44;4959340;28;45504;-68
2021/07/11 01:33:45;;;;;;;;;2.75;1.00;;;;;17.38;76.91;101360.16;4956491;28;47016;-72
2021/07/11 01:36:11;;;;;;;;;2.00;2.00;;;;;17.34;76.66;101363.34;4948282;28;47234;-71
2021/07/11 01:38:38;;;;;;;;;1.75;1.75;;;;;17.29;77.24;101369.22;4946770;28;45465;-74
2021/07/11 01:41:05;;;;;;;;;2.00;2.00;;;;;17.26;77.02;101361.56;4951526;28;45554;-74
2021/07/11 01:43:31;;;;;;;;;2.00;2.00;;;;;17.21;77.54;101355.94;4948055;28;45688;-74
2021/07/11 01:45:58;;;;;;;;;2.00;2.00;;;;;17.18;77.29;101351.78;4984741;28;46415;-69
2021/07/11 01:48:25;;;;;;;;;1.25;1.25;;;;;17.14;77.30;101352.31;5040307;28;45517;-73
2021/07/11 01:50:53;;;;;;;;;1.50;1.50;;;;;17.11;77.50;101345.50;5034086;28;45312;-70
2021/07/11 01:53:24;;;;;;;;;1.25;1.25;;;;;17.09;77.34;101346.66;5021509;28;45366;-74
2021/07/11 01:55:51;;;;;;;;;1.00;1.00;;;;;17.06;77.45;101347.84;5032833;28;45728;-73
2021/07/11 01:58:18;;;;;;;;;2.50;2.50;;;;;17.04;77.46;101344.53;5016933;28;45441;-74
2021/07/11 02:00:43;;;;;;;;;2.00;2.00;;;;;17.01;77.40;101346.69;5025478;28;45372;-73
2021/07/11 02:03:20;;;;;;;;;1.75;1.75;;;;;17.00;77.57;101351.22;5027087;28;45790;-73
2021/07/11 02:05:46;;;;;;;;;2.00;2.00;;;;;16.97;78.39;101348.91;5016956;28;46339;-72
2021/07/11 02:08:15;;;;;;;;;2.00;2.00;;;;;16.93;77.64;101347.59;5015947;28;45524;-73
2021/07/11 02:10:44;;;;;;;;;2.00;1.25;;;;;16.88;77.74;101350.78;5025745;28;45726;-68
2021/07/11 02:13:24;;;;;;;;;1.00;1.00;;;;;16.84;77.78;101348.63;5055378;28;45725;-73
2021/07/11 02:15:52;;;;;;;;;3.00;2.00;;;;;16.81;78.10;101346.31;5040264;28;49326;-70
2021/07/11 02:18:24;;;;;;;;;1.75;1.75;;;;;16.78;77.87;101339.50;5059159;28;45573;-73
2021/07/11 02:20:51;;;;;;;;;3.50;2.00;;;;;16.76;78.39;101342.34;5058200;28;45335;-73
2021/07/11 02:23:18;;;;;;;;;2.00;2.00;;;;;16.74;78.64;101340.81;5055740;28;45485;-68
2021/07/11 02:25:48;;;;;;;;;2.00;2.00;;;;;16.73;78.38;101337.31;5058736;28;45483;-73
2021/07/11 02:28:15;;;;;;;;;1.25;1.25;;;;;16.73;78.37;101336.50;5056378;28;45393;-68
2021/07/11 02:30:50;;;;;;;;;1.75;1.75;;;;;16.72;78.08;101335.66;5058273;28;45710;-74
2021/07/11 02:33:16;;;;;;;;;1.50;1.50;;;;;16.72;78.84;101334.84;5055368;28;45565;-72
2021/07/11 02:35:44;;;;;;;;;1.75;1.75;;;;;16.73;78.46;101340.00;5051373;28;46164;-70
2021/07/11 02:38:13;;;;;;;;;2.00;2.00;;;;;16.73;78.28;101339.16;5042086;28;45478;-72
2021/07/11 02:40:39;;;;;;;;;3.00;2.25;;;;;16.74;79.07;101338.16;5057736;28;45616;-68
2021/07/11 02:43:07;;;;;;;;;2.00;2.00;;;;;16.75;78.79;101337.97;5053687;28;49153;-73
2021/07/11 02:45:34;;;;;;;;;1.25;1.25;;;;;16.76;79.43;101347.66;5038118;28;48039;-68
2021/07/11 02:48:01;;;;;;;;;2.00;2.00;;;;;16.77;79.00;101343.16;5060838;28;45471;-73
2021/07/11 02:50:28;;;;;;;;;1.25;1.25;;;;;16.78;79.04;101350.19;5070935;28;45629;-73
2021/07/11 02:52:55;;;;;;;;;2.00;1.25;;;;;16.78;79.23;101355.50;5054838;28;45531;-73
2021/07/11 02:55:27;;;;;;;;;2.00;1.75;;;;;16.80;79.55;101358.03;5054189;28;45497;-71
2021/07/11 02:58:01;;;;;;;;;2.00;2.00;;;;;16.83;79.87;101358.50;5044084;28;45470;-74
2021/07/11 03:00:27;;;;;;;;;1.75;1.75;;;;;16.84;79.53;101362.84;5055950;28;45514;-68
2021/07/11 03:02:55;;;;;;;;;2.50;2.50;;;;;16.87;79.77;101356.31;5056240;28;45519;-68
2021/07/11 03:05:22;;;;;;;;;2.00;1.25;;;;;16.90;80.09;101354.13;5068329;28;45460;-70
2021/07/11 03:07:48;;;;;;;;;1.00;1.00;;;;;16.94;79.60;101360.78;5058213;28;45307;-72
2021/07/11 03:10:14;;;;;;;;;2.00;1.00;;;;;16.97;80.14;101355.06;5062189;28;45312;-73
2021/07/11 03:12:41;;;;;;;;;3.00;2.00;;;;;17.01;78.96;101349.38;5040809;28;45436;-72
2021/07/11 03:15:08;;;;;;;;;1.00;1.00;;;;;17.02;79.14;101351.06;5051463;28;52858;-73
2021/07/11 03:17:34;;;;;;;;;3.50;2.00;;;;;17.06;79.96;101344.34;5054882;28;45455;-74
2021/07/11 03:20:01;;;;;;;;;1.50;1.50;;;;;17.09;78.80;101350.16;5055921;28;45496;-74
2021/07/11 03:22:32;;;;;;;;;2.50;2.50;;;;;17.09;78.79;101352.00;5053409;28;45839;-71
2021/07/11 03:25:01;;;;;;;;;2.00;2.00;;;;;17.08;78.40;101355.69;5060054;28;46251;-73
2021/07/11 03:27:29;;;;;;;;;3.25;3.25;;;;;17.08;78.40;101356.50;5028124;28;45824;-71
2021/07/11 03:30:04;;;;;;;;;2.00;2.00;;;;;17.08;78.93;101364.50;5052677;28;45457;-73
2021/07/11 03:32:33;;;;;;;;;3.50;2.00;;;;;17.09;78.70;101366.19;5045069;28;45497;-70
2021/07/11 03:35:01;;;;;;;;;2.00;2.00;;;;;17.11;79.29;101363.31;5058676;28;46387;-73
2021/07/11 03:37:28;;;;;;;;;2.00;2.00;;;;;17.13;78.97;101369.31;5055627;28;45617;-73
2021/07/11 03:39:56;;;;;;;;;2.75;2.25;;;;;17.15;79.62;101372.66;5057484;28;45669;-74
2021/07/11 03:42:23;;;;;;;;;3.50;2.75;;;;;17.17;78.78;101371.47;5057289;28;45535;-73
2021/07/11 03:44:55;;;;;;;;;2.75;2.75;;;;;17.18;78.19;101372.28;5052318;28;45496;-69
2021/07/11 03:47:22;;;;;;;;;3.75;3.75;;;;;17.18;78.63;101380.31;5064451;28;45497;-68
2021/07/11 03:49:51;;;;;;;;;2.00;2.00;;;;;17.18;79.00;101388.31;5058625;28;45481;-68
2021/07/11 03:52:22;;;;;;;;;3.75;3.00;;;;;17.16;78.60;101385.84;5034496;28;45491;-68
2021/07/11 03:54:49;;;;;;;;;2.75;2.25;;;;;17.13;78.97;101388.84;5049675;28;46427;-72
2021/07/11 03:57:15;;;;;;;;;4.00;4.00;;;;;17.10;79.23;101396.41;5055848;28;45900;-71
2021/07/11 03:59:43;;;;;;;;;3.25;3.25;;;;;17.07;79.16;101399.44;5059022;28;45532;-68
2021/07/11 04:02:11;;;;;;;;;4.00;4.00;;;;;17.05;79.51;101391.56;5052282;28;45584;-69
2021/07/11 04:04:39;;;;;;;;;3.75;3.75;;;;;17.09;79.59;101392.06;5058359;28;47919;-72
2021/07/11 04:07:06;;;;;;;;;3.25;3.25;;;;;17.07;79.90;101394.09;5057448;28;45508;-72
2021/07/11 04:09:32;;;;;;;;;3.00;3.00;;;;;17.05;79.75;101388.06;5039514;28;45624;-74
2021/07/11 04:11:57;;;;;;;;;3.00;3.00;;;;;17.02;79.80;101389.25;5066225;28;45410;-73
2021/07/11 04:14:23;;;;;;;;;3.25;3.25;;;;;17.00;79.30;101388.59;5052568;28;45493;-71
2021/07/11 04:16:54;;;;;;;;;3.50;3.50;;;;;17.06;80.28;101395.06;5053462;28;45394;-74
2021/07/11 04:19:24;;;;;;;;;3.00;2.25;;;;;17.04;80.14;101389.94;5050726;28;45442;-74
2021/07/11 04:21:51;;;;;;;;;3.75;3.00;;;;;17.06;81.51;101397.75;5055456;28;45497;-69
2021/07/11 04:24:18;;;;;;;;;3.50;3.50;;;;;17.05;79.98;101398.75;5052950;28;46412;-74
2021/07/11 04:26:44;;;;;;;;;4.50;3.00;;;;;17.10;80.55;101391.06;5049517;28;45664;-74
2021/07/11 04:29:10;;;;;;;;;4.75;4.00;;;;;17.12;80.31;101392.53;5049177;28;45345;-69
2021/07/11 04:31:36;;;;;;;;;3.00;3.00;;;;;17.13;80.31;101393.38;5055523;28;45522;-74
2021/07/11 04:34:25;;;;;;;;;4.25;4.25;;;;;17.14;80.71;101392.38;5052819;28;46205;-73
2021/07/11 04:36:50;;;;;;;;;4.75;4.00;;;;;17.15;80.57;101391.34;5044636;28;45574;-69
2021/07/11 04:39:15;;;;;;;;;4.25;4.25;;;;;17.15;80.34;101386.00;5057844;28;45460;-68
2021/07/11 04:41:42;;;;;;;;;6.00;4.00;;;;;17.18;80.14;101399.00;5049732;28;45453;-69
2021/07/11 04:44:08;;;;;;;;;3.00;3.00;;;;;17.20;80.09;101392.47;5052224;28;45627;-69
2021/07/11 04:46:34;;;;;;;;;3.50;3.50;;;;;17.24;79.96;101392.97;5038357;28;45804;-72
2021/07/11 04:48:59;;;;;;;;;4.50;4.00;;;;;17.28;80.25;101401.44;5051074;28;45414;-72
2021/07/11 04:51:25;;;;;;;;;4.00;3.50;;;;;17.32;80.19;101400.09;5067947;28;45560;-73
2021/07/11 04:53:50;;;;;;;;;5.50;5.00;;;;;17.35;80.03;101411.25;5051337;28;46318;-74
2021/07/11 04:56:15;;;;;;;;;7.25;4.75;;;;;17.38;79.87;101408.25;5054040;28;45917;-73
2021/07/11 04:58:41;;;;;;;;;5.25;4.75;;;;;17.36;79.74;101402.25;5047100;28;45882;-72
2021/07/11 05:01:06;;;;;;;;;5.00;5.00;;;;;17.34;80.25;101403.44;5055260;28;45465;-70
2021/07/11 05:03:31;;;;;;;;;6.00;6.00;;;;;17.33;80.07;101407.94;5036006;28;47003;-75
2021/07/11 05:05:57;;;;;;;;;6.75;5.50;;;;;17.35;80.07;101405.91;5089567;27;45909;-69
2021/07/11 05:08:22;;;;;;;;;6.00;5.25;;;;;17.40;79.75;101413.38;5066486;28;45653;-72
2021/07/11 05:10:47;;;;;;;;;7.25;6.00;;;;;17.44;79.72;101404.03;5052202;28;45432;-72
2021/07/11 05:13:13;;;;;;;;;5.75;5.75;;;;;17.50;79.51;101405.13;5046790;28;46124;-75
2021/07/11 05:15:39;;;;;;;;;10.00;6.25;;;;;17.54;79.50;101409.94;5036478;28;45780;-75
2021/07/11 05:18:04;;;;;;;;;6.00;6.00;;;;;17.57;79.01;101409.59;5059922;28;45573;-75
2021/07/11 05:20:29;;;;;;;;;6.00;6.00;;;;;17.59;78.91;101407.56;5052961;28;45541;-76
2021/07/11 05:22:55;;;;;;;;;6.50;5.00;;;;;17.60;78.58;101408.41;5059614;28;46732;-73
2021/07/11 05:25:20;;;;;;;;;6.50;6.00;;;;;17.61;78.63;101399.38;5048011;28;45377;-73
2021/07/11 05:27:46;;;;;;;;;6.00;6.00;;;;;17.64;79.39;101404.38;5057512;28;45562;-73
2021/07/11 05:30:12;;;;;;;;;7.00;7.00;;;;;17.70;79.11;101403.63;5050034;28;45465;-68
2021/07/11 05:32:37;;;;;;;;;7.00;6.00;;;;;17.73;78.42;101413.97;5050453;28;46626;-69
2021/07/11 05:35:03;;;;;;;;;7.25;5.00;;;;;17.77;79.09;101414.44;5058578;28;45541;-75
2021/07/11 05:37:29;;;;;;;;;6.00;5.00;;;;;17.83;78.41;101408.41;5049914;28;45565;-68
2021/07/11 05:39:54;;;;;;;;;6.75;5.50;;;;;17.91;78.17;101415.53;5047965;28;45742;-70
2021/07/11 05:42:19;;;;;;;;;8.00;5.75;;;;;17.93;77.68;101418.88;5048227;28;46491;-75
2021/07/11 05:44:45;;;;;;;;;4.00;4.00;;;;;17.98;78.42;101424.50;5047688;28;45538;-73
2021/07/11 05:47:11;;;;;;;;;4.75;4.00;;;;;18.05;77.58;101422.72;5029536;28;45490;-69
2021/07/11 05:49:36;;;;;;;;;3.75;3.75;;;;;18.04;77.29;101429.94;5047033;28;45363;-72
2021/07/11 05:52:03;;;;;;;;;5.50;5.00;;;;;18.09;77.19;101428.56;5045235;28;45730;-69
2021/07/11 05:54:28;;;;;;;;;4.25;4.25;;;;;18.10;76.63;101420.38;5045324;28;45528;-72
2021/07/11 05:56:54;;;;;;;;;3.50;3.50;;;;;18.13;76.64;101419.19;5053044;28;45391;-76
2021/07/11 05:59:19;;;;;;;;;5.00;5.00;;;;;18.16;76.39;101414.28;5043308;28;45759;-71
2021/07/11 06:01:44;;;;;;;;;5.75;5.25;;;;;18.20;76.35;101420.94;5047620;28;45427;-71
2021/07/11 06:04:10;;;;;;;;;6.25;6.25;;;;;18.27;76.46;101416.53;5048259;28;45596;-72
2021/07/11 06:06:35;;;;;;;;;4.75;3.75;;;;;18.36;76.01;101411.91;5053417;28;45812;-70
2021/07/11 06:09:01;;;;;;;;;6.75;6.75;;;;;18.41;75.90;101412.16;5060872;28;45489;-72
2021/07/11 06:11:26;;;;;;;;;6.50;5.00;;;;;18.43;75.20;101414.66;5051640;28;45429;-71
2021/07/11 06:13:51;;;;;;;;;5.75;5.00;;;;;18.47;74.75;101414.13;5051982;28;45529;-77
2021/07/11 06:16:17;;;;;;;;;4.75;4.50;;;;;18.53;74.39;101414.41;5044901;28;45504;-71
2021/07/11 06:18:42;;;;;;;;;5.75;5.50;;;;;18.61;74.57;101422.31;5040116;28;45673;-76
2021/07/11 06:21:08;;;;;;;;;6.00;6.00;;;;;18.73;74.21;101420.00;5046056;28;45513;-68
2021/07/11 06:23:33;;;;;;;;;6.75;6.50;;;;;18.84;74.02;101424.91;5044887;28;45616;-70
2021/07/11 06:25:58;;;;;;;;;4.50;4.50;;;;;18.89;73.45;101428.72;5029274;28;45504;-73
2021/07/11 06:28:24;;;;;;;;;5.00;5.00;;;;;18.89;72.58;101422.50;5044417;28;45640;-81
2021/07/11 06:30:49;;;;;;;;;6.00;6.00;;;;;18.90;73.04;101426.84;5045815;28;46256;-75
2021/07/11 06:33:15;;;;;;;;;4.00;4.00;;;;;18.87;72.31;101417.34;5045823;28;45574;-68
2021/07/11 06:35:40;;;;;;;;;6.25;4.75;;;;;18.91;72.87;101423.13;5034271;28;45996;-72
2021/07/11 06:38:05;;;;;;;;;4.50;4.50;;;;;19.04;72.62;101428.69;5049157;28;45388;-70
2021/07/11 06:40:31;;;;;;;;;6.25;5.75;;;;;19.23;71.93;101418.34;5042738;28;45569;-73
2021/07/11 06:42:56;;;;;;;;;4.50;4.50;;;;;19.44;71.91;101429.09;5041652;28;45783;-73
2021/07/11 06:45:22;;;;;;;;;7.00;6.00;;;;;19.69;71.05;101428.75;5046093;28;45685;-69
2021/07/11 06:47:47;;;;;;;;;7.50;5.00;;;;;19.93;68.78;101422.13;5046455;28;45443;-78
2021/07/11 06:50:15;;;;;;;;;7.50;6.00;;;;;19.92;70.30;101432.03;5047114;28;45672;-72
2021/07/11 06:52:42;;;;;;;;;5.25;5.25;;;;;19.83;69.47;101422.47;5043528;28;46021;-71
2021/07/11 06:55:08;;;;;;;;;8.25;5.75;;;;;19.72;69.65;101426.50;5043285;28;45485;-72
2021/07/11 06:57:35;;;;;;;;;4.50;4.50;;;;;19.72;69.31;101421.13;5046014;28;45724;-72
2021/07/11 07:00:01;;;;;;;;;6.00;6.00;;;;;19.77;70.09;101417.88;5045625;28;45643;-71
2021/07/11 07:02:26;;;;;;;;;5.50;4.00;;;;;19.86;69.03;101415.91;5048156;28;45663;-72
2021/07/11 07:04:53;;;;;;;;;5.50;4.50;;;;;19.98;69.58;101420.53;5052669;28;45401;-67
2021/07/11 07:07:19;;;;;;;;;3.75;3.25;;;;;20.19;69.28;101422.31;5050798;28;45599;-76
2021/07/11 07:09:44;;;;;;;;;4.75;3.00;;;;;20.24;68.44;101424.41;5048387;28;45829;-71
2021/07/11 07:12:10;;;;;;;;;6.75;4.75;;;;;20.02;66.86;101420.13;5055453;28;45524;-75
2021/07/11 07:14:35;;;;;;;;;5.00;4.00;;;;;19.80;68.43;101417.47;5051484;28;45507;-75
2021/07/11 07:17:01;;;;;;;;;5.00;4.75;;;;;19.63;68.77;101419.56;5049185;28;46022;-72
2021/07/11 07:19:26;;;;;;;;;3.75;3.75;;;;;19.51;68.74;101426.47;5044221;28;48231;-71
2021/07/11 07:21:52;;;;;;;;;5.00;3.50;;;;;19.45;69.53;101430.75;5057492;28;45840;-67
2021/07/11 07:24:17;;;;;;;;;4.75;4.00;;;;;19.44;69.17;101422.91;5060493;28;45755;-71
2021/07/11 07:26:43;;;;;;;;;4.75;4.75;;;;;19.49;69.76;101423.16;5048415;28;45526;-68
2021/07/11 07:29:09;;;;;;;;;3.00;3.00;;;;;19.67;68.53;101420.03;5054356;28;46440;-72
2021/07/11 07:31:36;;;;;;;;;5.00;4.50;;;;;19.71;68.36;101429.38;5052421;28;45438;-67
2021/07/11 07:34:02;;;;;;;;;3.00;3.00;;;;;19.70;68.61;101423.16;5062229;28;45454;-75
2021/07/11 07:36:27;;;;;;;;;3.50;3.50;;;;;19.76;68.71;101424.28;5051078;28;45446;-71
2021/07/11 07:38:53;;;;;;;;;5.50;4.00;;;;;19.67;68.74;101436.97;5053469;28;46332;-69
2021/07/11 07:41:18;;;;;;;;;3.75;3.50;;;;;19.61;68.57;101439.56;5049935;28;45520;-71
2021/07/11 07:43:44;;;;;;;;;4.50;4.25;;;;;19.55;68.79;101438.47;5049401;28;45354;-72
2021/07/11 07:46:10;;;;;;;;;4.00;3.00;;;;;19.51;69.22;101440.72;5036009;28;45621;-71
2021/07/11 07:48:35;;;;;;;;;3.75;3.25;;;;;19.47;69.56;101439.44;5047417;28;46425;-68
2021/07/11 07:51:00;;;;;;;;;3.00;3.00;;;;;19.39;69.06;101442.25;5056767;28;45526;-72
2021/07/11 07:53:26;;;;;;;;;3.50;3.50;;;;;19.32;69.62;101444.03;5050811;28;45488;-69
2021/07/11 07:55:51;;;;;;;;;4.75;4.25;;;;;19.35;69.40;101438.28;5053259;28;45578;-69
2021/07/11 07:58:16;;;;;;;;;4.75;4.75;;;;;19.39;69.28;101441.44;5053825;28;46476;-68
2021/07/11 08:00:42;;;;;;;;;5.00;4.25;;;;;19.45;69.22;101441.47;5046150;28;45522;-70
2021/07/11 08:03:08;;;;;;;;;6.00;4.50;;;;;19.39;69.05;101438.75;5047919;28;45532;-72
2021/07/11 08:05:33;;;;;;;;;4.00;4.00;;;;;19.40;69.54;101435.84;5032507;28;45430;-68
2021/07/11 08:07:59;;;;;;;;;7.00;4.50;;;;;19.55;69.02;101433.13;5031709;28;46846;-71
2021/07/11 08:10:24;;;;;;;;;5.25;5.00;;;;;19.76;69.20;101435.81;5044573;28;45506;-74
2021/07/11 08:12:50;;;;;;;;;5.75;5.75;;;;;19.82;67.71;101436.06;5038486;28;45545;-72
2021/07/11 08:15:16;;;;;;;;;5.75;4.75;;;;;19.97;69.57;101436.81;5031143;28;45470;-76
2021/07/11 08:17:47;;;;;;;;;6.75;5.50;;;;;20.16;68.30;101432.63;5026437;28;46410;-76
2021/07/11 08:20:15;;;;;;;;;5.25;5.25;;;;;20.37;68.61;101429.03;5040146;28;45813;-69
2021/07/11 08:22:40;;;;;;;;;9.25;6.25;;;;;20.65;66.91;101431.72;5034441;28;45534;-75
2021/07/11 08:25:10;;;;;;;;;5.75;5.00;;;;;20.89;67.23;101433.03;5031604;28;45423;-76
2021/07/11 08:27:37;;;;;;;;;9.50;8.50;;;;;21.13;66.82;101437.06;5031505;28;46517;-76
2021/07/11 08:30:09;;;;;;;;;10.25;9.00;;;;;21.42;66.20;101435.13;5004952;28;45710;-72
2021/07/11 08:32:35;;;;;;;;;9.25;8.00;;;;;21.66;65.19;101429.16;5031910;28;45475;-76
2021/07/11 08:35:00;;;;;;;;;9.00;9.00;;;;;22.49;64.97;101425.16;5033694;28;45681;-74
2021/07/11 08:37:26;;;;;;;;;12.00;10.75;;;;;23.48;63.62;101423.03;5040251;28;45401;-71
2021/07/11 08:39:53;;;;;;;;;10.25;9.00;;;;;24.99;61.44;101410.94;5025901;28;45466;-72
2021/07/11 08:42:19;;;;;;;;;11.50;9.00;;;;;26.72;47.53;101413.47;5030429;28;45531;-71
2021/07/11 08:44:46;;;;;;;;;8.50;8.00;;;;;27.11;53.62;101410.16;5040342;28;45433;-69
2021/07/11 08:47:11;;;;;;;;;10.75;9.75;;;;;27.77;46.48;101414.00;5033837;28;45559;-77
2021/07/11 08:49:37;;;;;;;;;8.75;8.00;;;;;29.51;46.73;101415.34;5033019;28;45465;-76
2021/07/11 08:52:04;;;;;;;;;10.25;8.25;;;;;30.94;46.46;101410.72;5030875;28;45474;-72
2021/07/11 08:54:29;;;;;;;;;9.50;8.25;;;;;30.97;43.37;101420.28;5012767;28;45593;-71
2021/07/11 08:57:14;;;;;;;;;10.00;8.25;;;;;31.29;44.88;101417.31;5026288;28;46381;-71
2021/07/11 08:59:41;;;;;;;;;7.00;7.00;;;;;31.33;44.87;101414.84;5026747;28;45475;-68
2021/07/11 09:02:08;;;;;;;;;8.50;6.75;;;;;31.17;44.77;101414.84;5010553;28;45468;-71
2021/07/11 09:04:44;;;;;;;;;8.00;7.00;;;;;31.97;43.28;101417.03;5028834;28;45923;-72
2021/07/11 09:07:21;;;;;;;;;7.00;7.00;;;;;32.02;44.07;101421.69;5024640;28;46600;-72
2021/07/11 09:09:53;;;;;;;;;7.50;4.00;;;;;33.68;41.96;101424.09;5031059;28;45541;-71
2021/07/11 09:12:19;;;;;;;;;6.00;6.00;;;;;33.98;40.01;101426.53;5048052;28;45817;-69
2021/07/11 09:14:45;;;;;;;;;6.00;6.00;;;;;33.26;39.76;101428.25;5045236;28;45668;-71
2021/07/11 09:17:12;;;;;;;;;6.50;5.75;;;;;32.98;42.00;101430.59;5064231;28;45792;-74
2021/07/11 09:19:41;;;;;;;;;5.75;4.75;;;;;32.38;38.17;101427.06;5052324;28;45566;-70
2021/07/11 09:22:10;;;;;;;;;6.00;5.75;;;;;31.04;41.87;101429.84;5047165;28;46293;-69
2021/07/11 09:24:46;;;;;;;;;6.00;6.00;;;;;29.86;44.21;101433.88;5044086;28;45582;-69
2021/07/11 09:27:18;;;;;;;;;5.50;5.25;;;;;28.51;41.88;101435.50;5048607;28;46514;-73
2021/07/11 09:29:44;;;;;;;;;5.75;5.00;;;;;27.25;45.51;101427.81;5048600;28;45608;-71
2021/07/11 09:32:23;;;;;;;;;7.50;6.50;;;;;26.44;46.71;101433.19;5045354;28;45376;-69
2021/07/11 09:34:48;;;;;;;;;5.00;5.00;;;;;27.01;48.75;101427.06;5056609;28;45425;-68
2021/07/11 09:37:17;;;;;;;;;6.00;5.00;;;;;28.19;45.15;101426.31;5054395;28;45693;-67
2021/07/11 09:39:50;;;;;;;;;5.50;4.75;;;;;29.30;44.95;101425.22;5047019;28;45490;-70
2021/07/11 09:42:43;;;;;;;;;3.75;3.75;;;;;29.39;44.86;101423.69;5031243;28;45600;-68
2021/07/11 09:45:29;;;;;;;;;5.00;4.00;;;;;29.00;45.24;101415.66;5047540;28;45466;-68
2021/07/11 09:48:05;;;;;;;;;5.00;4.75;;;;;29.02;46.44;101413.50;5051463;28;46343;-70
2021/07/11 09:50:31;;;;;;;;;5.25;3.75;;;;;29.07;45.17;101429.09;5045381;28;45532;-69
2021/07/11 09:52:59;;;;;;;;;5.50;4.75;;;;;29.47;44.71;101417.75;5049106;28;45410;-72
2021/07/11 09:55:27;;;;;;;;;4.50;4.00;;;;;29.55;40.35;101421.88;5054934;28;45497;-70
2021/07/11 09:57:55;;;;;;;;;4.00;4.00;;;;;29.70;42.67;101427.50;5024877;28;47333;-71
2021/07/11 10:00:26;;;;;;;;;4.00;4.00;;;;;29.72;44.15;101419.06;5049854;28;45564;-74
2021/07/11 10:02:54;;;;;;;;;3.75;3.75;;;;;29.39;43.37;101415.50;5050076;28;45744;-71
2021/07/11 10:05:22;;;;;;;;;4.00;4.00;;;;;28.72;44.83;101409.38;5042985;28;45526;-72
2021/07/11 10:07:48;;;;;;;;;5.00;5.00;;;;;28.50;44.67;101405.84;5043206;28;46124;-70
2021/07/11 10:10:16;;;;;;;;;2.25;2.25;;;;;28.84;43.18;101398.34;5044351;28;45640;-67
2021/07/11 10:12:43;;;;;;;;;6.75;4.50;;;;;29.12;40.01;101408.19;5050124;28;45532;-71
2021/07/11 10:15:15;;;;;;;;;4.50;4.00;;;;;28.87;43.43;101406.00;5035720;28;45501;-71
2021/07/11 10:17:51;;;;;;;;;4.50;3.00;;;;;28.87;44.71;101407.91;5047852;28;46963;-73
2021/07/11 10:20:19;;;;;;;;;4.75;4.50;;;;;29.56;43.37;101407.22;5056593;28;45566;-73
2021/07/11 10:22:49;;;;;;;;;3.75;3.75;;;;;29.92;41.76;101407.47;5052837;28;45443;-70
2021/07/11 10:25:19;;;;;;;;;2.75;2.25;;;;;29.65;43.02;101407.53;5054285;28;57387;-69
2021/07/11 10:27:45;;;;;;;;;5.00;4.50;;;;;29.56;41.00;101401.78;5046943;28;46082;-73
2021/07/11 10:30:12;;;;;;;;;3.00;3.00;;;;;29.18;44.29;101390.03;5046423;28;45547;-74
2021/07/11 10:32:37;;;;;;;;;4.75;4.25;;;;;28.76;43.83;101396.09;5053824;28;45612;-68
2021/07/11 10:35:13;;;;;;;;;4.50;3.50;;;;;28.42;43.27;101398.91;5059354;28;45559;-74
2021/07/11 10:37:52;;;;;;;;;3.25;3.25;;;;;28.20;44.84;101401.63;5047430;28;46287;-69
2021/07/11 10:40:24;;;;;;;;;3.25;3.25;;;;;28.14;44.94;101396.34;5023122;28;45484;-74
2021/07/11 10:42:51;;;;;;;;;5.25;5.25;;;;;27.88;43.91;101394.09;5058674;28;45470;-69
2021/07/11 10:45:19;;;;;;;;;3.00;3.00;;;;;28.16;45.66;101399.66;5049149;28;45492;-70
2021/07/11 10:47:45;;;;;;;;;4.00;3.50;;;;;29.10;44.54;101399.44;5055370;28;45548;-73
2021/07/11 10:50:28;;;;;;;;;4.75;4.00;;;;;29.57;42.59;101401.53;5033450;28;45612;-75
2021/07/11 10:52:58;;;;;;;;;4.75;4.75;;;;;29.43;43.52;101399.50;5058718;28;45907;-70
2021/07/11 10:55:25;;;;;;;;;4.00;3.75;;;;;29.35;42.44;101400.75;5051538;28;45485;-74
2021/07/11 10:57:51;;;;;;;;;4.75;4.25;;;;;29.35;43.23;101400.75;5046500;28;45921;-74
2021/07/11 11:00:25;;;;;;;;;2.75;2.75;;;;;29.46;43.69;101397.06;5046987;28;45581;-74
2021/07/11 11:02:52;;;;;;;;;3.50;3.50;;;;;28.99;41.54;101386.00;5047412;28;46090;-75
2021/07/11 11:05:26;;;;;;;;;4.00;4.00;;;;;28.43;44.06;101388.88;5048423;28;45557;-75
2021/07/11 11:08:10;;;;;;;;;2.25;2.25;;;;;28.20;44.77;101385.31;5050365;28;45486;-74
2021/07/11 11:10:38;;;;;;;;;5.50;3.75;;;;;28.18;45.22;101382.03;5051072;28;45702;-70
2021/07/11 11:13:05;;;;;;;;;2.75;2.75;;;;;28.15;44.22;101389.88;5052977;28;45917;-76
2021/07/11 11:15:38;;;;;;;;;4.00;3.25;;;;;28.15;44.80;101385.25;5047517;28;46119;-74
2021/07/11 11:18:12;;;;;;;;;5.25;5.25;;;;;28.09;44.96;101383.53;5050277;28;46149;-71
2021/07/11 11:20:37;;;;;;;;;5.50;4.00;;;;;28.07;42.83;101385.69;5052711;28;45522;-76
2021/07/11 11:23:09;;;;;;;;;5.00;5.00;;;;;27.86;45.63;101379.13;5049168;28;45531;-76
2021/07/11 11:25:34;;;;;;;;;3.75;3.75;;;;;27.69;44.96;101379.13;5048067;28;45572;-74
2021/07/11 11:27:59;;;;;;;;;3.00;3.00;;;;;27.54;44.50;101379.69;5051652;28;45417;-74